createdAt,value
2023-04-12T00:01:52.757Z,0.38
2023-04-12T00:04:22.850Z,0.43
2023-04-12T00:06:50.815Z,0.50
2023-04-12T00:09:17.803Z,0.50
2023-04-12T00:11:44.776Z,0.50
2023-04-12T00:14:11.781Z,0.63
2023-04-12T00:16:39.079Z,0.60
2023-04-12T00:19:06.835Z,0.50
2023-04-12T00:21:33.814Z,0.40
2023-04-12T00:24:01.324Z,0.40
2023-04-12T00:26:28.670Z,0.30
2023-04-12T00:28:55.972Z,0.50
2023-04-12T00:31:23.157Z,0.30
2023-04-12T00:33:50.231Z,0.40
2023-04-12T00:36:17.490Z,0.30
2023-04-12T00:38:46.138Z,0.28
2023-04-12T00:41:15.024Z,0.30
2023-04-12T00:43:42.410Z,0.40
2023-04-12T00:46:10.077Z,0.30
2023-04-12T00:48:37.875Z,0.30
2023-04-12T00:51:07.511Z,0.40
2023-04-12T00:53:34.931Z,0.50
2023-04-12T00:56:03.632Z,0.40
2023-04-12T00:58:31.943Z,0.40
2023-04-12T01:00:59.319Z,0.30
2023-04-12T01:03:28.196Z,0.30
2023-04-12T01:06:16.339Z,0.40
2023-04-12T01:09:11.421Z,0.40
2023-04-12T01:11:46.303Z,0.30
2023-04-12T01:14:42.863Z,0.38
2023-04-12T01:17:14.391Z,0.45
2023-04-12T01:19:57.558Z,0.30
2023-04-12T01:22:24.777Z,0.30
2023-04-12T01:25:13.758Z,0.10
2023-04-12T01:27:49.938Z,0.20
2023-04-12T01:30:20.495Z,0.20
2023-04-12T01:32:51.553Z,0.28
2023-04-12T01:35:21.678Z,0.10
2023-04-12T01:37:49.154Z,0.30
2023-04-12T01:40:18.881Z,0.10
2023-04-12T01:42:46.415Z,0.30
2023-04-12T01:45:13.391Z,0.15
2023-04-12T01:47:40.558Z,0.10
2023-04-12T01:50:45.997Z,0.10
2023-04-12T01:53:23.576Z,0.10
2023-04-12T01:55:52.927Z,0.10
2023-04-12T01:58:24.581Z,0.30
2023-04-12T02:00:52.959Z,0.15
2023-04-12T02:03:23.971Z,0.50
2023-04-12T02:05:52.884Z,0.22
2023-04-12T02:08:21.840Z,0.40
2023-04-12T02:10:48.899Z,0.63
2023-04-12T02:13:18.331Z,0.43
2023-04-12T02:15:45.953Z,0.30
2023-04-12T02:18:14.030Z,0.57
2023-04-12T02:20:43.897Z,0.30
2023-04-12T02:23:11.000Z,0.30
2023-04-12T02:25:39.532Z,0.30
2023-04-12T02:28:06.828Z,0.20
2023-04-12T02:30:34.562Z,0.43
2023-04-12T02:33:02.420Z,0.30
2023-04-12T02:35:33.756Z,0.20
2023-04-12T02:38:08.760Z,0.25
2023-04-12T02:40:42.439Z,0.30
2023-04-12T02:43:14.261Z,0.25
2023-04-12T02:45:45.349Z,0.30
2023-04-12T02:48:12.517Z,0.20
2023-04-12T02:50:40.048Z,0.40
2023-04-12T02:53:15.785Z,0.30
2023-04-12T02:55:46.335Z,0.30
2023-04-12T02:58:14.457Z,0.40
2023-04-12T03:00:46.742Z,0.30
2023-04-12T03:03:17.982Z,0.30
2023-04-12T03:05:48.024Z,0.28
2023-04-12T03:08:17.382Z,0.30
2023-04-12T03:10:52.121Z,0.20
2023-04-12T03:13:22.317Z,0.20
2023-04-12T03:15:58.546Z,0.22
2023-04-12T03:18:32.658Z,0.10
2023-04-12T03:20:59.933Z,0.10
2023-04-12T03:23:30.625Z,0.40
2023-04-12T03:26:15.108Z,0.30
2023-04-12T03:29:09.452Z,0.20
2023-04-12T03:31:39.425Z,0.22
2023-04-12T03:34:08.616Z,0.40
2023-04-12T03:36:39.333Z,0.32
2023-04-12T03:39:14.820Z,0.28
2023-04-12T03:41:43.558Z,0.35
2023-04-12T03:44:10.923Z,0.43
2023-04-12T03:46:38.715Z,0.40
2023-04-12T03:49:09.896Z,0.25
2023-04-12T03:51:42.784Z,0.20
2023-04-12T03:54:11.679Z,0.30
2023-04-12T03:56:49.628Z,0.20
2023-04-12T03:59:24.638Z,0.20
2023-04-12T04:01:52.314Z,1.05
2023-04-12T04:04:21.538Z,0.32
2023-04-12T04:06:52.897Z,0.17
2023-04-12T04:09:20.449Z,0.30
2023-04-12T04:11:50.037Z,0.30
2023-04-12T04:14:18.233Z,0.30
2023-04-12T04:16:45.334Z,0.30
2023-04-12T04:19:13.245Z,0.32
2023-04-12T04:21:43.320Z,0.20
2023-04-12T04:24:13.339Z,0.28
2023-04-12T04:26:46.286Z,0.20
2023-04-12T04:29:23.754Z,0.75
2023-04-12T04:31:51.356Z,0.20
2023-04-12T04:34:19.274Z,0.20
2023-04-12T04:36:48.174Z,0.35
2023-04-12T04:39:22.990Z,0.47
2023-04-12T04:41:55.006Z,0.30
2023-04-12T04:44:45.394Z,0.30
2023-04-12T04:47:14.890Z,0.50
2023-04-12T04:49:45.035Z,0.40
2023-04-12T04:52:24.791Z,0.50
2023-04-12T04:54:57.855Z,0.20
2023-04-12T04:57:28.408Z,0.50
2023-04-12T04:59:57.044Z,0.30
2023-04-12T05:02:29.587Z,0.38
2023-04-12T05:05:00.031Z,0.30
2023-04-12T05:07:29.957Z,0.20
2023-04-12T05:09:59.981Z,0.25
2023-04-12T05:12:27.062Z,0.30
2023-04-12T05:15:10.717Z,0.22
2023-04-12T05:17:39.671Z,0.30
2023-04-12T05:20:08.106Z,0.35
2023-04-12T05:22:35.663Z,0.30
2023-04-12T05:25:06.594Z,0.30
2023-04-12T05:27:39.367Z,0.28
2023-04-12T05:30:09.033Z,0.65
2023-04-12T05:32:36.170Z,0.55
2023-04-12T05:35:03.870Z,0.30
2023-04-12T05:37:31.642Z,0.60
2023-04-12T05:39:59.088Z,0.30
2023-04-12T05:42:28.513Z,0.50
2023-04-12T05:44:56.520Z,0.22
2023-04-12T05:47:25.047Z,0.40
2023-04-12T05:49:53.857Z,0.30
2023-04-12T05:52:21.058Z,0.20
2023-04-12T05:54:49.838Z,0.30
2023-04-12T05:57:18.480Z,0.55
2023-04-12T05:59:48.462Z,0.30
2023-04-12T06:02:15.737Z,0.38
2023-04-12T06:04:50.610Z,0.50
2023-04-12T06:07:19.673Z,0.25
2023-04-12T06:09:47.416Z,0.30
2023-04-12T06:12:15.491Z,0.50
2023-04-12T06:14:43.010Z,0.20
2023-04-12T06:17:13.361Z,0.30
2023-04-12T06:19:41.067Z,0.35
2023-04-12T06:22:15.913Z,0.30
2023-04-12T06:24:48.298Z,0.28
2023-04-12T06:27:35.674Z,0.32
2023-04-12T06:30:13.778Z,0.30
2023-04-12T06:33:36.160Z,0.95
2023-04-12T06:39:59.501Z,0.20
2023-04-12T06:42:59.252Z,0.20
2023-04-12T06:46:32.287Z,0.20
2023-04-12T06:49:22.907Z,0.20
2023-04-12T07:04:11.000Z,0.10
2023-04-12T07:11:29.829Z,0.28
2023-04-12T07:14:18.736Z,0.20
2023-04-12T07:17:37.385Z,0.30
2023-04-12T07:23:57.672Z,0.20
2023-04-12T07:26:49.049Z,0.30
2023-04-12T07:37:42.409Z,0.30
2023-04-12T07:40:23.687Z,0.22
2023-04-12T07:43:00.238Z,0.20
2023-04-12T07:45:35.919Z,0.20
2023-04-12T07:48:08.813Z,0.40
2023-04-12T07:51:00.704Z,0.28
2023-04-12T07:53:31.484Z,0.50
2023-04-12T07:56:21.393Z,1.10
2023-04-12T07:59:02.682Z,2.35
2023-04-12T08:01:37.819Z,3.35
2023-04-12T08:07:33.504Z,1.63
2023-04-12T08:10:47.307Z,1.20
2023-04-12T08:15:54.756Z,0.93
2023-04-12T08:18:22.113Z,1.13
2023-04-12T08:20:52.284Z,1.08
2023-04-12T08:25:08.778Z,0.70
2023-04-12T08:27:29.958Z,0.60
2023-04-12T08:29:58.010Z,0.75
2023-04-12T08:32:32.577Z,0.50
2023-04-12T08:35:25.157Z,1.00
2023-04-12T08:42:34.530Z,0.50
2023-04-12T09:09:13.768Z,0.50
2023-04-12T09:14:28.307Z,0.30
2023-04-12T09:16:55.625Z,0.50
2023-04-12T09:19:35.744Z,0.57
2023-04-12T09:22:03.376Z,0.43
2023-04-12T09:24:45.681Z,0.75
2023-04-12T09:27:48.748Z,0.50
2023-04-12T09:32:59.207Z,0.90
2023-04-12T09:35:37.739Z,0.90
2023-04-12T09:38:11.165Z,0.88
2023-04-12T09:40:39.429Z,1.00
2023-04-12T09:43:08.940Z,0.75
2023-04-12T09:45:41.726Z,0.93
2023-04-12T09:48:29.479Z,0.90
2023-04-12T09:51:01.702Z,0.90
2023-04-12T09:53:30.301Z,1.20
2023-04-12T09:55:59.225Z,1.13
2023-04-12T09:58:29.924Z,0.60
2023-04-12T10:01:01.351Z,0.85
2023-04-12T10:03:29.427Z,1.58
2023-04-12T10:06:02.485Z,1.10
2023-04-12T10:08:33.109Z,0.88
2023-04-12T10:11:00.987Z,0.80
2023-04-12T10:13:32.232Z,1.05
2023-04-12T10:16:01.024Z,0.93
2023-04-12T10:18:29.715Z,1.05
2023-04-12T10:20:58.044Z,1.05
2023-04-12T10:23:26.406Z,1.00
2023-04-12T10:25:57.154Z,1.45
2023-04-12T10:28:26.370Z,1.15
2023-04-12T10:30:57.809Z,1.50
2023-04-12T10:33:31.770Z,1.00
2023-04-12T10:36:08.752Z,0.68
2023-04-12T10:39:31.080Z,1.25
2023-04-12T10:42:30.181Z,1.05
2023-04-12T10:45:26.897Z,1.10
2023-04-12T10:47:59.045Z,1.33
2023-04-12T10:50:34.173Z,0.57
2023-04-12T10:53:13.037Z,0.90
2023-04-12T10:55:41.402Z,0.90
2023-04-12T10:58:47.100Z,1.20
2023-04-12T11:02:26.762Z,1.38
2023-04-12T11:05:10.558Z,1.73
2023-04-12T11:08:10.643Z,0.73
2023-04-12T11:10:50.872Z,1.55
2023-04-12T11:13:42.422Z,1.58
2023-04-12T11:16:23.560Z,1.33
2023-04-12T11:18:51.566Z,1.10
2023-04-12T11:21:19.694Z,1.40
2023-04-12T11:23:50.795Z,0.85
2023-04-12T11:26:52.994Z,0.77
2023-04-12T11:29:26.501Z,0.80
2023-04-12T11:31:56.464Z,0.95
2023-04-12T11:34:23.513Z,1.30
2023-04-12T11:36:54.456Z,0.95
2023-04-12T11:39:21.941Z,0.93
2023-04-12T11:41:49.948Z,1.40
2023-04-12T11:44:21.970Z,0.68
2023-04-12T11:46:49.834Z,0.60
2023-04-12T11:49:17.753Z,0.70
2023-04-12T11:51:48.222Z,0.82
2023-04-12T11:54:16.528Z,0.93
2023-04-12T11:56:43.560Z,1.00
2023-04-12T11:59:10.779Z,0.77
2023-04-12T12:01:38.131Z,0.98
2023-04-12T12:04:07.755Z,1.75
2023-04-12T12:06:35.456Z,2.10
2023-04-12T12:09:04.027Z,1.33
2023-04-12T12:11:31.831Z,1.65
2023-04-12T12:14:00.349Z,1.05
2023-04-12T12:16:29.960Z,1.38
2023-04-12T12:18:58.262Z,0.93
2023-04-12T12:21:27.300Z,1.15
2023-04-12T12:23:56.577Z,0.70
2023-04-12T12:26:25.608Z,1.13
2023-04-12T12:28:57.862Z,0.60
2023-04-12T12:33:58.451Z,0.73
2023-04-12T12:36:33.300Z,0.90
2023-04-12T12:43:14.434Z,1.30
2023-04-12T12:45:41.644Z,1.33
2023-04-12T12:52:00.832Z,1.00
2023-04-12T12:52:35.313Z,0.90
2023-04-12T12:55:08.829Z,1.35
2023-04-12T12:57:36.600Z,1.08
2023-04-12T13:00:05.081Z,0.50
2023-04-12T13:02:34.818Z,0.63
2023-04-12T13:05:12.207Z,0.35
2023-04-12T13:08:24.618Z,0.40
2023-04-12T13:10:59.653Z,0.55
2023-04-12T13:13:33.919Z,0.65
2023-04-12T13:16:00.968Z,0.82
2023-04-12T13:18:27.963Z,0.75
2023-04-12T13:20:55.014Z,0.68
2023-04-12T13:23:21.947Z,0.38
2023-04-12T13:25:49.053Z,0.40
2023-04-12T13:28:17.068Z,0.32
2023-04-12T13:30:44.154Z,0.50
2023-04-12T13:33:13.374Z,0.40
2023-04-12T13:35:43.048Z,0.73
2023-04-12T13:38:09.986Z,0.50
2023-04-12T13:40:37.311Z,1.05
2023-04-12T13:43:04.799Z,0.55
2023-04-12T13:45:33.926Z,0.40
2023-04-12T13:48:01.496Z,0.75
2023-04-12T13:50:28.726Z,0.57
2023-04-12T13:52:55.828Z,0.68
2023-04-12T13:55:23.014Z,0.52
2023-04-12T13:57:50.037Z,0.60
2023-04-12T14:00:17.771Z,0.70
2023-04-12T14:05:26.395Z,0.63
2023-04-12T14:07:56.655Z,1.10
2023-04-12T14:10:23.693Z,0.55
2023-04-12T14:12:50.888Z,0.47
2023-04-12T14:15:17.914Z,0.50
2023-04-12T14:17:46.500Z,0.30
2023-04-12T14:20:14.054Z,0.30
2023-04-12T14:22:41.525Z,0.65
2023-04-12T14:25:09.542Z,0.50
2023-04-12T14:27:39.698Z,0.40
2023-04-12T14:30:07.438Z,0.30
2023-04-12T14:32:40.158Z,0.30
2023-04-12T14:35:09.549Z,0.40
2023-04-12T14:37:36.657Z,0.38
2023-04-12T14:40:06.587Z,0.65
2023-04-12T14:42:33.629Z,0.30
2023-04-12T14:45:01.703Z,0.50
2023-04-12T14:47:28.845Z,0.43
2023-04-12T14:49:56.270Z,0.30
2023-04-12T14:52:23.360Z,0.57
2023-04-12T14:54:50.359Z,0.40
2023-04-12T14:57:17.796Z,0.40
2023-04-12T14:59:45.050Z,0.40
2023-04-12T15:02:12.425Z,0.45
2023-04-12T15:04:39.675Z,0.28
2023-04-12T15:07:06.824Z,0.20
2023-04-12T15:09:33.894Z,0.40
2023-04-12T15:12:02.720Z,0.30
2023-04-12T15:14:30.061Z,0.50
2023-04-12T15:16:58.473Z,0.40
2023-04-12T15:19:25.715Z,0.60
2023-04-12T15:21:55.127Z,0.40
2023-04-12T15:24:25.313Z,0.40
2023-04-12T15:26:53.282Z,0.30
2023-04-12T15:29:22.895Z,0.47
2023-04-12T15:31:52.836Z,0.30
2023-04-12T15:34:25.597Z,0.10
2023-04-12T15:36:52.894Z,0.13
2023-04-12T15:39:20.091Z,0.10
2023-04-12T15:41:47.193Z,0.17
2023-04-12T15:44:14.130Z,0.10
2023-04-12T15:46:56.053Z,0.20
2023-04-12T15:49:30.460Z,0.13
2023-04-12T15:51:57.582Z,0.05
2023-04-12T15:54:25.016Z,0.10
2023-04-12T15:56:55.407Z,0.08
2023-04-12T15:59:22.524Z,0.10
2023-04-12T16:01:49.801Z,0.10
2023-04-12T16:04:18.404Z,0.10
2023-04-12T16:06:46.652Z,0.00
2023-04-12T16:09:14.521Z,0.00
2023-04-12T16:11:43.768Z,0.00
2023-04-12T16:14:13.317Z,0.13
2023-04-12T16:16:40.640Z,0.00
2023-04-12T16:19:08.381Z,0.10
2023-04-12T16:21:35.977Z,0.10
2023-04-12T16:24:03.529Z,0.08
2023-04-12T16:26:30.564Z,0.00
2023-04-12T16:29:00.831Z,0.10
2023-04-12T16:31:28.164Z,0.10
2023-04-12T16:33:55.252Z,0.00
2023-04-12T16:36:24.121Z,0.10
2023-04-12T16:38:55.143Z,0.08
2023-04-12T16:41:23.296Z,0.10
2023-04-12T16:43:53.859Z,0.10
2023-04-12T16:46:21.297Z,0.00
2023-04-12T16:48:48.245Z,0.10
2023-04-12T16:51:15.462Z,0.10
2023-04-12T16:53:42.390Z,0.08
2023-04-12T16:56:09.452Z,0.30
2023-04-12T16:58:36.570Z,0.10
2023-04-12T17:01:03.890Z,0.10
2023-04-12T17:03:31.069Z,0.80
2023-04-12T17:05:58.274Z,0.08
2023-04-12T17:08:25.454Z,0.10
2023-04-12T17:10:52.362Z,0.10
2023-04-12T17:13:20.402Z,0.00
2023-04-12T17:15:50.718Z,0.10
2023-04-12T17:18:17.952Z,0.00
2023-04-12T17:20:45.454Z,0.00
2023-04-12T17:23:13.570Z,0.10
2023-04-12T17:25:41.869Z,0.00
2023-04-12T17:28:09.514Z,0.10
2023-04-12T17:30:37.088Z,0.00
2023-04-12T17:33:05.109Z,0.10
2023-04-12T17:35:32.139Z,0.10
2023-04-12T17:37:59.255Z,0.13
2023-04-12T17:40:26.281Z,0.10
2023-04-12T17:42:53.218Z,0.00
2023-04-12T17:45:22.104Z,0.03
2023-04-12T17:47:49.368Z,0.10
2023-04-12T17:50:16.819Z,0.08
2023-04-12T17:52:44.444Z,0.10
2023-04-12T17:55:12.889Z,0.13
2023-04-12T17:57:43.429Z,0.00
2023-04-12T18:00:14.236Z,0.03
2023-04-12T18:02:43.116Z,0.00
2023-04-12T18:05:10.923Z,0.00
2023-04-12T18:07:39.859Z,0.17
2023-04-12T18:10:13.118Z,0.00
2023-04-12T18:12:41.907Z,0.10
2023-04-12T18:15:09.493Z,0.00
2023-04-12T18:17:36.924Z,0.10
2023-04-12T18:20:09.629Z,0.10
2023-04-12T18:22:38.019Z,0.10
2023-04-12T18:25:06.535Z,0.20
2023-04-12T18:27:33.542Z,0.10
2023-04-12T18:30:03.486Z,0.10
2023-04-12T18:32:31.142Z,0.10
2023-04-12T18:35:02.160Z,0.10
2023-04-12T18:37:29.344Z,0.10
2023-04-12T18:39:56.385Z,0.17
2023-04-12T18:42:23.462Z,0.22
2023-04-12T18:44:51.459Z,0.30
2023-04-12T18:47:19.102Z,0.17
2023-04-12T18:49:46.054Z,0.30
2023-04-12T18:52:13.081Z,0.10
2023-04-12T18:54:40.049Z,0.20
2023-04-12T18:57:07.793Z,0.10
2023-04-12T18:59:34.975Z,0.30
2023-04-12T19:02:02.198Z,0.35
2023-04-12T19:04:29.552Z,0.20
2023-04-12T19:06:57.570Z,0.20
2023-04-12T19:09:24.830Z,0.20
2023-04-12T19:11:56.371Z,0.20
2023-04-12T19:14:23.615Z,0.20
2023-04-12T19:16:51.603Z,0.25
2023-04-12T19:19:18.668Z,0.28
2023-04-12T19:21:46.113Z,0.30
2023-04-12T19:24:13.178Z,0.20
2023-04-12T19:26:46.898Z,0.40
2023-04-12T19:29:17.762Z,0.30
2023-04-12T19:31:47.648Z,0.30
2023-04-12T19:34:17.755Z,0.30
2023-04-12T19:36:49.066Z,0.35
2023-04-12T19:39:18.312Z,0.32
2023-04-12T19:41:49.460Z,0.50
2023-04-12T19:44:16.637Z,0.82
2023-04-12T19:46:44.085Z,0.60
2023-04-12T19:49:18.736Z,0.35
2023-04-12T19:51:46.706Z,0.40
2023-04-12T19:54:14.296Z,0.40
2023-04-12T19:56:41.346Z,0.50
2023-04-12T19:59:10.822Z,0.60
2023-04-12T20:01:50.670Z,0.50
2023-04-12T20:04:31.261Z,0.55
2023-04-12T20:07:03.076Z,0.40
2023-04-12T20:09:33.024Z,0.43
2023-04-12T20:12:00.182Z,0.50
2023-04-12T20:14:28.543Z,0.40
2023-04-12T20:16:58.621Z,0.47
2023-04-12T20:19:31.372Z,0.50
2023-04-12T20:22:04.537Z,0.40
2023-04-12T20:24:34.408Z,0.55
2023-04-12T20:27:05.353Z,0.40
2023-04-12T20:29:34.827Z,0.40
2023-04-12T20:32:02.401Z,0.40
2023-04-12T20:34:29.484Z,0.50
2023-04-12T20:36:56.549Z,0.63
2023-04-12T20:39:23.636Z,0.60
2023-04-12T20:41:51.590Z,0.45
2023-04-12T20:44:19.641Z,0.38
2023-04-12T20:46:47.425Z,0.30
2023-04-12T20:49:14.784Z,0.52
2023-04-12T20:51:41.819Z,0.30
2023-04-12T20:54:09.683Z,0.30
2023-04-12T20:56:37.156Z,0.38
2023-04-12T20:59:04.193Z,0.20
2023-04-12T21:01:31.554Z,0.40
2023-04-12T21:04:06.006Z,0.20
2023-04-12T21:06:34.575Z,0.20
2023-04-12T21:09:02.512Z,0.20
2023-04-12T21:11:29.467Z,0.30
2023-04-12T21:13:56.478Z,0.20
2023-04-12T21:16:25.275Z,0.30
2023-04-12T21:18:55.667Z,0.30
2023-04-12T21:21:23.207Z,0.30
2023-04-12T21:23:51.685Z,0.20
2023-04-12T21:26:21.920Z,0.50
2023-04-12T21:28:49.351Z,0.20
2023-04-12T21:31:16.507Z,0.73
2023-04-12T21:33:43.707Z,0.20
2023-04-12T21:36:13.171Z,0.75
2023-04-12T21:38:43.032Z,0.38
2023-04-12T21:41:13.893Z,0.40
2023-04-12T21:43:41.352Z,0.25
2023-04-12T21:46:09.108Z,0.40
2023-04-12T21:48:40.079Z,0.25
2023-04-12T21:51:07.340Z,0.40
2023-04-12T21:53:34.477Z,0.22
2023-04-12T21:56:04.618Z,0.30
2023-04-12T21:58:35.823Z,0.30
2023-04-12T22:01:10.919Z,0.20
2023-04-12T22:03:38.898Z,0.22
2023-04-12T22:06:07.150Z,0.30
2023-04-12T22:08:34.308Z,0.20
2023-04-12T22:11:01.562Z,0.20
2023-04-12T22:13:28.779Z,0.20
2023-04-12T22:15:55.808Z,0.10
2023-04-12T22:18:23.421Z,0.40
2023-04-12T22:20:50.968Z,0.40
2023-04-12T22:23:18.173Z,0.20
2023-04-12T22:25:46.001Z,0.30
2023-04-12T22:28:17.594Z,0.63
2023-04-12T22:30:47.060Z,0.22
2023-04-12T22:33:16.082Z,0.20
2023-04-12T22:35:43.273Z,0.20
2023-04-12T22:38:13.812Z,0.20
2023-04-12T22:40:40.913Z,0.20
2023-04-12T22:43:18.595Z,0.22
2023-04-12T22:45:46.376Z,0.20
2023-04-12T22:48:17.334Z,0.10
2023-04-12T22:50:47.465Z,0.30
2023-04-12T22:53:15.898Z,0.30
2023-04-12T22:55:43.329Z,0.28
2023-04-12T22:58:10.532Z,0.20
2023-04-12T23:00:37.659Z,0.20
2023-04-12T23:03:05.606Z,0.20
2023-04-12T23:05:33.822Z,0.22
2023-04-12T23:08:03.162Z,0.10
2023-04-12T23:10:34.375Z,0.20
2023-04-12T23:13:03.871Z,0.10
2023-04-12T23:15:35.022Z,0.10
2023-04-12T23:18:03.897Z,0.10
2023-04-12T23:20:31.011Z,0.20
2023-04-12T23:22:58.617Z,0.15
2023-04-12T23:25:40.899Z,0.15
2023-04-12T23:28:19.479Z,0.10
2023-04-12T23:30:51.383Z,0.20
2023-04-12T23:33:20.536Z,0.13
2023-04-12T23:36:02.745Z,0.15
2023-04-12T23:38:33.966Z,0.10
2023-04-12T23:41:02.615Z,0.13
2023-04-12T23:43:30.810Z,0.20
2023-04-12T23:45:58.279Z,0.30
2023-04-12T23:48:25.429Z,0.40
2023-04-12T23:50:52.718Z,0.22
2023-04-12T23:53:20.140Z,0.30
2023-04-12T23:55:49.276Z,0.20
2023-04-12T23:58:17.327Z,0.13
